Time;durP1;ratioP1;P1;durP2;ratioP2;P2;SDS_P1;SDS_P2;PMS_P1;PMS_P2;Temp;Humidity;BMP_temperature;BMP_pressure;BME280_temperature;BME280_humidity;BME280_pressure;Samples;Min_cycle;Max_cycle;Signal;HPM_P1;HPM_P2
2021/06/22 00:00:35;;;;;;;1.00;1.00;;;20.90;99.90;;;;;;4860123;29;20398;-79
2021/06/22 00:03:01;;;;;;;1.20;1.10;;;21.00;99.90;;;;;;4864821;29;20535;-78
2021/06/22 00:05:26;;;;;;;0.90;0.90;;;21.00;99.90;;;;;;4884385;29;20485;-79
2021/06/22 00:07:53;;;;;;;1.38;1.27;;;20.90;99.90;;;;;;4886753;29;20894;-83
2021/06/22 00:10:21;;;;;;;1.33;1.23;;;20.90;99.90;;;;;;4857879;29;20935;-80
2021/06/22 00:12:47;;;;;;;1.30;1.20;;;20.90;99.90;;;;;;4862111;29;20437;-78
2021/06/22 00:15:15;;;;;;;1.90;1.10;;;20.90;99.90;;;;;;4876765;29;20917;-80
2021/06/22 00:17:41;;;;;;;0.90;0.80;;;20.80;99.90;;;;;;4873576;29;20407;-79
2021/06/22 00:20:07;;;;;;;1.13;1.13;;;20.80;99.90;;;;;;4855106;29;20403;-79
2021/06/22 00:22:33;;;;;;;1.10;1.10;;;20.80;99.90;;;;;;4866579;29;20407;-78
2021/06/22 00:24:58;;;;;;;1.27;1.17;;;20.80;99.90;;;;;;4862242;29;20472;-79
2021/06/22 00:27:24;;;;;;;1.30;1.20;;;20.70;99.90;;;;;;4838735;29;20492;-82
2021/06/22 00:29:51;;;;;;;1.30;1.20;;;20.70;99.90;;;;;;4855814;29;20425;-78
2021/06/22 00:32:19;;;;;;;1.40;1.30;;;20.60;99.90;;;;;;4865720;29;20419;-80
2021/06/22 00:34:45;;;;;;;1.33;1.25;;;20.60;99.90;;;;;;4886779;29;20410;-79
2021/06/22 00:37:15;;;;;;;1.40;1.30;;;20.60;99.90;;;;;;4872821;29;20432;-81
2021/06/22 00:39:44;;;;;;;1.35;1.30;;;20.50;99.90;;;;;;4860357;29;20403;-80
2021/06/22 00:42:11;;;;;;;1.50;1.40;;;20.50;99.90;;;;;;4863421;29;20413;-80
2021/06/22 00:44:44;;;;;;;1.40;1.27;;;20.50;99.90;;;;;;4855338;29;20403;-80
2021/06/22 00:47:09;;;;;;;1.13;1.10;;;20.50;99.90;;;;;;4872462;29;20502;-78
2021/06/22 00:49:35;;;;;;;1.30;1.20;;;20.40;99.90;;;;;;4848211;29;20417;-80
2021/06/22 00:52:01;;;;;;;1.40;1.30;;;20.40;99.90;;;;;;4867447;29;20407;-83
2021/06/22 00:54:37;;;;;;;1.23;1.17;;;20.40;99.90;;;;;;4864082;29;20943;-80
2021/06/22 00:57:09;;;;;;;1.25;1.17;;;20.40;99.90;;;;;;4859537;29;20406;-83
2021/06/22 00:59:35;;;;;;;1.27;1.20;;;20.40;99.90;;;;;;4887690;29;20416;-85
2021/06/22 01:02:02;;;;;;;1.33;1.23;;;20.30;99.90;;;;;;4878724;29;20404;-83
2021/06/22 01:04:28;;;;;;;1.48;1.38;;;20.40;99.90;;;;;;4880551;29;20408;-85
2021/06/22 01:07:11;;;;;;;2.20;1.20;;;20.30;99.90;;;;;;4878233;29;20445;-83
2021/06/22 01:09:37;;;;;;;1.20;1.20;;;20.30;99.90;;;;;;4884564;29;20465;-84
2021/06/22 01:12:03;;;;;;;1.40;1.30;;;20.30;99.90;;;;;;4864561;29;20414;-81
2021/06/22 01:14:30;;;;;;;1.20;1.20;;;20.30;99.90;;;;;;4871085;29;20908;-79
2021/06/22 01:16:56;;;;;;;2.10;1.47;;;20.20;99.90;;;;;;4868489;29;20492;-79
2021/06/22 01:19:23;;;;;;;1.35;1.17;;;20.10;99.90;;;;;;4852560;29;20972;-79
2021/06/22 01:21:53;;;;;;;1.30;1.20;;;20.10;99.90;;;;;;4890306;29;20515;-79
2021/06/22 01:24:27;;;;;;;3.20;1.38;;;20.10;99.90;;;;;;4887758;29;20409;-79
2021/06/22 01:26:55;;;;;;;2.20;1.30;;;20.00;99.90;;;;;;4890500;29;20451;-78
2021/06/22 01:29:21;;;;;;;2.53;1.35;;;20.20;99.90;;;;;;4883745;29;20416;-79
2021/06/22 01:31:48;;;;;;;1.37;1.27;;;20.00;99.90;;;;;;4869825;29;20414;-78
2021/06/22 01:34:13;;;;;;;2.10;1.55;;;20.00;99.90;;;;;;4882498;29;20417;-79
2021/06/22 01:36:44;;;;;;;2.10;1.40;;;20.00;99.90;;;;;;4882470;29;20419;-78
2021/06/22 01:39:12;;;;;;;2.05;1.20;;;20.00;99.90;;;;;;4850251;29;20401;-78
2021/06/22 01:41:38;;;;;;;1.80;1.50;;;20.00;99.90;;;;;;4896849;29;20412;-79
2021/06/22 01:44:04;;;;;;;1.50;1.30;;;20.00;99.90;;;;;;4845464;29;20427;-78
2021/06/22 01:46:31;;;;;;;1.45;1.35;;;19.90;99.90;;;;;;4881651;29;20420;-78
2021/06/22 01:48:57;;;;;;;1.37;1.27;;;19.90;99.90;;;;;;4864945;29;20401;-78
2021/06/22 01:51:29;;;;;;;2.25;1.40;;;19.90;99.90;;;;;;4860133;29;20409;-78
2021/06/22 01:53:59;;;;;;;1.73;1.40;;;19.90;99.90;;;;;;4899196;29;20482;-80
2021/06/22 01:56:32;;;;;;;1.48;1.38;;;19.90;99.90;;;;;;4886149;29;20409;-82
2021/06/22 01:59:01;;;;;;;1.40;1.30;;;19.90;99.90;;;;;;4890525;29;20453;-79
2021/06/22 02:02:05;;;;;;;1.40;1.30;;;19.80;99.90;;;;;;4879245;29;20413;-78
2021/06/22 02:04:43;;;;;;;1.40;1.30;;;19.90;99.90;;;;;;4872089;29;20417;-80
2021/06/22 02:07:12;;;;;;;1.60;1.40;;;19.90;99.90;;;;;;4873023;29;20944;-79
2021/06/22 02:09:40;;;;;;;1.63;1.52;;;19.90;99.90;;;;;;4877925;29;20407;-79
2021/06/22 02:12:10;;;;;;;1.50;1.40;;;19.80;99.90;;;;;;4864937;29;20412;-79
2021/06/22 02:14:38;;;;;;;1.67;1.58;;;19.90;99.90;;;;;;4856083;29;20483;-79
2021/06/22 02:17:04;;;;;;;2.00;1.80;;;19.90;99.90;;;;;;4835750;29;21045;-78
2021/06/22 02:19:29;;;;;;;1.60;1.50;;;19.90;99.90;;;;;;4871467;29;20490;-78
2021/06/22 02:21:58;;;;;;;1.90;1.70;;;19.90;99.90;;;;;;4856422;29;20405;-78
2021/06/22 02:24:34;;;;;;;2.67;1.75;;;20.00;99.90;;;;;;4876500;29;20410;-80
2021/06/22 02:27:00;;;;;;;2.10;1.90;;;20.00;99.90;;;;;;4862886;29;20424;-80
2021/06/22 02:29:25;;;;;;;2.80;1.75;;;20.00;99.90;;;;;;4879552;29;20416;-78
2021/06/22 02:31:51;;;;;;;1.60;1.50;;;20.00;99.90;;;;;;4848041;29;20416;-78
2021/06/22 02:34:17;;;;;;;1.57;1.47;;;19.90;99.90;;;;;;4849971;29;20533;-81
2021/06/22 02:36:42;;;;;;;2.08;1.77;;;20.00;99.90;;;;;;4847887;29;20445;-78
2021/06/22 02:39:09;;;;;;;1.90;1.80;;;20.00;99.90;;;;;;4857158;29;20467;-79
2021/06/22 02:41:44;;;;;;;3.33;1.90;;;19.90;99.90;;;;;;4843806;29;20418;-78
2021/06/22 02:44:10;;;;;;;1.63;1.53;;;19.90;99.90;;;;;;4863704;29;20424;-78
2021/06/22 02:46:42;;;;;;;1.83;1.73;;;19.90;99.90;;;;;;4840324;29;20414;-78
2021/06/22 02:49:08;;;;;;;1.83;1.73;;;19.90;99.90;;;;;;4855569;29;20409;-79
2021/06/22 02:51:38;;;;;;;2.00;1.90;;;19.90;99.90;;;;;;4878445;29;20415;-79
2021/06/22 02:54:04;;;;;;;2.47;1.88;;;19.90;99.90;;;;;;4864739;29;20998;-80
2021/06/22 02:56:30;;;;;;;1.93;1.83;;;19.90;99.90;;;;;;4862870;29;20498;-80
2021/06/22 02:58:57;;;;;;;2.27;1.80;;;20.00;99.90;;;;;;4880385;29;20413;-79
2021/06/22 03:01:23;;;;;;;1.85;1.75;;;20.00;99.90;;;;;;4882552;29;20468;-79
2021/06/22 03:03:49;;;;;;;1.80;1.70;;;20.00;99.90;;;;;;4838353;29;20415;-79
2021/06/22 03:06:18;;;;;;;2.28;2.08;;;20.10;99.90;;;;;;4847278;29;20421;-83
2021/06/22 03:08:53;;;;;;;1.75;1.65;;;20.00;99.90;;;;;;4852854;29;20409;-79
2021/06/22 03:11:20;;;;;;;2.33;1.90;;;20.10;99.90;;;;;;4871361;29;20413;-79
2021/06/22 03:13:48;;;;;;;2.00;1.80;;;20.20;99.90;;;;;;4881629;29;20403;-82
2021/06/22 03:16:27;;;;;;;4.05;1.67;;;20.20;99.90;;;;;;4870207;29;20430;-79
2021/06/22 03:18:54;;;;;;;1.83;1.73;;;20.20;99.90;;;;;;4851881;29;20399;-79
2021/06/22 03:21:21;;;;;;;1.98;1.80;;;20.20;99.90;;;;;;4885341;29;20434;-79
2021/06/22 03:23:48;;;;;;;1.73;1.60;;;20.20;99.90;;;;;;4857176;29;20413;-80
2021/06/22 03:26:15;;;;;;;2.58;1.98;;;20.30;99.90;;;;;;4878450;29;21049;-79
2021/06/22 03:28:42;;;;;;;2.70;1.92;;;20.30;99.90;;;;;;4875181;29;20436;-79
2021/06/22 03:31:26;;;;;;;1.92;1.83;;;20.30;99.90;;;;;;4866923;29;20777;-80
2021/06/22 03:33:52;;;;;;;2.20;2.00;;;20.40;99.90;;;;;;4873682;29;20443;-79
2021/06/22 03:36:17;;;;;;;2.28;2.05;;;20.40;99.90;;;;;;4867960;29;20407;-82
2021/06/22 03:38:44;;;;;;;1.80;1.70;;;20.50;99.90;;;;;;4850210;29;20470;-79
2021/06/22 03:41:11;;;;;;;2.10;1.90;;;20.50;99.90;;;;;;4879883;29;20816;-81
2021/06/22 03:43:37;;;;;;;1.97;1.80;;;20.50;99.90;;;;;;4870143;29;20413;-80
2021/06/22 03:46:06;;;;;;;2.03;1.90;;;20.50;99.90;;;;;;4870999;29;20425;-82
2021/06/22 03:48:32;;;;;;;2.00;1.90;;;20.60;99.90;;;;;;4863888;29;20410;-79
2021/06/22 03:50:58;;;;;;;1.80;1.70;;;20.60;99.90;;;;;;4846544;29;20396;-81
2021/06/22 03:53:24;;;;;;;2.85;2.13;;;20.70;99.90;;;;;;4881569;29;20448;-79
2021/06/22 03:55:51;;;;;;;1.95;1.85;;;20.70;99.90;;;;;;4870430;29;20933;-79
2021/06/22 03:58:35;;;;;;;1.70;1.60;;;20.70;99.90;;;;;;4861045;29;20831;-79
2021/06/22 04:01:01;;;;;;;1.90;1.80;;;20.80;99.90;;;;;;4858331;29;20502;-80
2021/06/22 04:03:33;;;;;;;2.40;2.20;;;20.70;99.90;;;;;;4863430;29;20413;-79
2021/06/22 04:06:17;;;;;;;2.20;2.00;;;20.80;99.90;;;;;;4859882;29;20406;-84
2021/06/22 04:08:46;;;;;;;2.10;1.90;;;20.80;99.90;;;;;;4877759;29;20416;-83
2021/06/22 04:11:17;;;;;;;1.85;1.75;;;20.80;99.90;;;;;;4878257;29;20403;-80
2021/06/22 04:13:43;;;;;;;3.15;2.38;;;20.80;99.90;;;;;;4869942;29;20496;-79
2021/06/22 04:16:09;;;;;;;1.87;1.77;;;20.70;99.90;;;;;;4876998;29;20428;-80
2021/06/22 04:18:36;;;;;;;2.10;2.00;;;20.70;99.90;;;;;;4842395;29;20421;-79
2021/06/22 04:21:06;;;;;;;2.13;1.90;;;20.70;99.90;;;;;;4878496;29;20413;-79
2021/06/22 04:23:42;;;;;;;1.90;1.80;;;20.70;99.90;;;;;;4863239;29;20420;-79
2021/06/22 04:26:08;;;;;;;2.45;2.25;;;20.80;99.90;;;;;;4838988;29;20419;-79
2021/06/22 04:28:34;;;;;;;1.93;1.83;;;20.80;99.90;;;;;;4865792;29;20401;-80
2021/06/22 04:31:01;;;;;;;4.70;2.08;;;20.80;99.90;;;;;;4873857;29;20906;-78
2021/06/22 04:33:26;;;;;;;2.10;2.00;;;20.80;99.90;;;;;;4859474;29;20827;-82
2021/06/22 04:35:52;;;;;;;2.50;2.30;;;20.90;99.90;;;;;;4861862;29;20435;-82
2021/06/22 04:38:18;;;;;;;2.28;2.08;;;21.00;99.90;;;;;;4870035;29;20486;-80
2021/06/22 04:40:43;;;;;;;2.40;2.20;;;21.00;99.90;;;;;;4874481;29;20408;-80
2021/06/22 04:43:09;;;;;;;3.00;2.70;;;21.00;99.90;;;;;;4886993;29;20485;-78
2021/06/22 04:45:35;;;;;;;2.70;2.50;;;21.10;99.90;;;;;;4860559;29;20422;-79
2021/06/22 04:48:00;;;;;;;2.63;2.43;;;21.10;99.90;;;;;;4856958;29;20403;-80
2021/06/22 04:50:26;;;;;;;2.58;2.38;;;21.10;99.90;;;;;;4868426;29;20399;-77
2021/06/22 04:52:52;;;;;;;2.50;2.30;;;21.00;99.90;;;;;;4878090;29;20409;-78
2021/06/22 04:55:21;;;;;;;2.47;2.30;;;21.00;99.90;;;;;;4864930;29;21078;-77
2021/06/22 04:57:47;;;;;;;2.50;2.30;;;21.00;99.90;;;;;;4868756;29;20424;-78
2021/06/22 05:00:14;;;;;;;3.97;2.40;;;20.90;99.90;;;;;;4878381;29;20767;-78
2021/06/22 05:02:40;;;;;;;3.08;2.80;;;20.90;99.90;;;;;;4891949;29;20469;-77
2021/06/22 05:05:06;;;;;;;2.97;2.60;;;21.00;99.90;;;;;;4866390;29;20432;-77
2021/06/22 05:07:32;;;;;;;3.35;2.50;;;21.00;99.90;;;;;;4847551;29;20417;-80
2021/06/22 05:09:58;;;;;;;4.60;2.70;;;21.10;99.90;;;;;;4865342;29;21141;-78
2021/06/22 05:12:24;;;;;;;2.60;2.40;;;21.10;99.90;;;;;;4858524;29;20419;-76
2021/06/22 05:14:49;;;;;;;2.80;2.60;;;20.90;99.90;;;;;;4867663;29;20914;-79
2021/06/22 05:17:15;;;;;;;3.53;2.40;;;21.10;99.90;;;;;;4840682;29;20472;-80
2021/06/22 05:19:41;;;;;;;2.80;2.60;;;21.00;99.90;;;;;;4890277;29;20405;-75
2021/06/22 05:22:06;;;;;;;2.63;2.43;;;21.00;99.90;;;;;;4880188;29;20417;-78
2021/06/22 05:24:32;;;;;;;3.00;2.80;;;20.90;99.90;;;;;;4878461;29;20944;-78
2021/06/22 05:26:58;;;;;;;2.97;2.75;;;20.90;99.90;;;;;;4867052;29;20430;-82
2021/06/22 05:29:23;;;;;;;2.77;2.57;;;20.90;99.90;;;;;;4866648;29;20414;-78
2021/06/22 05:31:49;;;;;;;2.77;2.57;;;20.90;99.90;;;;;;4013374;29;10002070;-80
2021/06/22 05:34:14;;;;;;;3.50;2.78;;;20.90;99.90;;;;;;4880006;29;20412;-77
2021/06/22 05:36:40;;;;;;;2.97;2.77;;;20.90;99.90;;;;;;4873351;29;20417;-78
2021/06/22 05:39:06;;;;;;;3.10;2.80;;;20.80;99.90;;;;;;4886100;29;20412;-77
2021/06/22 05:41:31;;;;;;;3.30;3.00;;;20.80;99.90;;;;;;4848237;29;20936;-78
2021/06/22 05:43:57;;;;;;;3.10;2.87;;;20.70;99.90;;;;;;4867130;29;20931;-81
2021/06/22 05:46:23;;;;;;;3.95;3.55;;;20.70;99.90;;;;;;4856228;29;20409;-79
2021/06/22 05:48:48;;;;;;;3.80;3.28;;;20.70;99.90;;;;;;4859404;29;20943;-79
2021/06/22 05:51:14;;;;;;;3.23;2.93;;;20.70;99.90;;;;;;4866659;29;20800;-78
2021/06/22 05:53:39;;;;;;;4.45;3.20;;;20.60;99.90;;;;;;4868053;29;20410;-79
2021/06/22 05:56:05;;;;;;;3.13;2.92;;;20.60;99.90;;;;;;4878967;29;20492;-78
2021/06/22 05:58:31;;;;;;;3.03;2.83;;;20.60;99.90;;;;;;4859451;29;20414;-78
2021/06/22 06:00:56;;;;;;;3.13;2.90;;;20.60;99.90;;;;;;4874322;29;20478;-79
2021/06/22 06:03:22;;;;;;;3.60;3.30;;;20.50;99.90;;;;;;4853216;29;20413;-80
2021/06/22 06:05:48;;;;;;;3.70;3.40;;;20.50;99.90;;;;;;4869573;29;20401;-79
2021/06/22 06:08:13;;;;;;;3.13;2.92;;;20.40;99.90;;;;;;4844449;29;20407;-79
2021/06/22 06:10:40;;;;;;;3.60;3.30;;;20.20;99.90;;;;;;4886633;29;20423;-79
2021/06/22 06:13:05;;;;;;;4.22;3.83;;;20.20;99.90;;;;;;4864330;29;20870;-78
2021/06/22 06:15:31;;;;;;;4.93;4.40;;;20.20;99.90;;;;;;4862186;29;20412;-78
2021/06/22 06:17:57;;;;;;;4.45;3.88;;;20.10;99.90;;;;;;4854673;29;20395;-81
2021/06/22 06:20:22;;;;;;;3.37;3.07;;;20.10;99.90;;;;;;4866441;29;20762;-79
2021/06/22 06:22:49;;;;;;;3.75;3.45;;;20.20;99.90;;;;;;4883094;29;20406;-80
2021/06/22 06:25:15;;;;;;;3.97;3.67;;;20.20;99.90;;;;;;4864766;29;20948;-80
2021/06/22 06:30:28;;;;;;;3.88;3.53;;;20.30;99.90;;;;;;4879831;29;20935;-82
2021/06/22 06:32:54;;;;;;;4.50;4.20;;;20.30;99.90;;;;;;4863742;29;20491;-81
2021/06/22 06:35:20;;;;;;;3.75;3.45;;;20.20;99.90;;;;;;4882954;29;20496;-81
2021/06/22 06:37:45;;;;;;;8.67;4.40;;;20.30;99.90;;;;;;4869861;29;20398;-81
2021/06/22 06:40:11;;;;;;;4.00;3.60;;;20.30;99.90;;;;;;4861044;29;20405;-86
2021/06/22 06:42:37;;;;;;;4.00;3.70;;;20.40;99.90;;;;;;4860988;29;21027;-82
2021/06/22 06:45:04;;;;;;;4.82;4.32;;;20.30;99.90;;;;;;4885035;29;20414;-82
2021/06/22 06:47:30;;;;;;;4.70;4.18;;;20.40;99.90;;;;;;4860872;29;20421;-84
2021/06/22 06:49:56;;;;;;;5.27;4.67;;;20.30;99.90;;;;;;4879966;29;20397;-88
2021/06/22 06:52:21;;;;;;;4.72;4.22;;;20.40;99.90;;;;;;4868756;29;20415;-85
2021/06/22 06:54:47;;;;;;;4.82;4.40;;;20.40;99.90;;;;;;4866612;29;20990;-85
2021/06/22 06:57:13;;;;;;;22.27;11.90;;;20.40;99.90;;;;;;4861120;29;20401;-83
2021/06/22 06:59:38;;;;;;;37.45;20.02;;;20.50;99.90;;;;;;4869435;29;20426;-85
2021/06/22 07:02:04;;;;;;;5.93;4.93;;;20.50;99.90;;;;;;4886296;29;20412;-84
2021/06/22 07:04:30;;;;;;;10.77;6.43;;;20.40;99.90;;;;;;4871548;29;20425;-86
2021/06/22 07:06:55;;;;;;;6.45;5.72;;;20.30;99.90;;;;;;4884072;29;20411;-85
2021/06/22 07:09:21;;;;;;;5.47;4.90;;;20.40;99.90;;;;;;4900391;29;20488;-86
2021/06/22 07:11:47;;;;;;;5.30;4.80;;;20.40;99.90;;;;;;4880313;29;20415;-84
2021/06/22 07:14:14;;;;;;;6.37;5.50;;;20.40;99.90;;;;;;4892290;29;20777;-88
2021/06/22 07:16:41;;;;;;;5.05;4.63;;;20.50;99.90;;;;;;4870857;29;20413;-85
2021/06/22 07:19:07;;;;;;;5.43;4.60;;;20.50;99.90;;;;;;4887137;29;20426;-83
2021/06/22 07:21:32;;;;;;;5.47;4.97;;;20.60;99.90;;;;;;4890838;29;20405;-81
2021/06/22 07:23:58;;;;;;;5.47;4.97;;;20.50;99.90;;;;;;4855847;29;20939;-81
2021/06/22 07:26:24;;;;;;;5.38;4.90;;;20.60;99.90;;;;;;4884465;29;20504;-83
2021/06/22 07:28:50;;;;;;;5.83;5.10;;;20.60;99.90;;;;;;4870660;29;20406;-84
2021/06/22 07:31:15;;;;;;;5.30;4.80;;;20.60;99.90;;;;;;4864391;29;20507;-82
2021/06/22 07:33:42;;;;;;;5.38;4.88;;;20.70;99.90;;;;;;4851624;29;20395;-90
2021/06/22 07:36:08;;;;;;;5.67;5.13;;;20.80;99.90;;;;;;4877930;29;20409;-86
2021/06/22 07:38:34;;;;;;;5.28;4.70;;;20.70;99.90;;;;;;4871281;29;20451;-86
2021/06/22 07:40:59;;;;;;;6.32;4.85;;;20.70;99.90;;;;;;4883470;29;20405;-86
2021/06/22 07:43:25;;;;;;;4.47;4.07;;;21.00;99.90;;;;;;4900579;29;20414;-83
2021/06/22 07:45:51;;;;;;;5.88;4.63;;;20.80;99.90;;;;;;4890215;29;20447;-84
2021/06/22 07:48:17;;;;;;;5.20;4.80;;;20.80;99.90;;;;;;4870940;29;20459;-84
2021/06/22 07:50:42;;;;;;;7.30;4.68;;;20.80;99.90;;;;;;4894111;29;20407;-87
2021/06/22 07:53:08;;;;;;;6.80;5.13;;;20.80;99.90;;;;;;4891154;29;20410;-89
2021/06/22 07:55:34;;;;;;;4.82;4.43;;;20.70;99.90;;;;;;4881995;29;20458;-86
2021/06/22 07:58:00;;;;;;;4.72;4.32;;;20.80;99.90;;;;;;4881941;29;20473;-86
2021/06/22 08:00:45;;;;;;;5.60;5.03;;;20.70;99.90;;;;;;4902989;29;20456;-86
2021/06/22 08:03:13;;;;;;;5.55;5.03;;;20.50;99.90;;;;;;4885703;29;20482;-87
2021/06/22 08:05:38;;;;;;;4.57;4.13;;;20.50;99.90;;;;;;4877807;29;20420;-88
2021/06/22 08:08:05;;;;;;;5.63;5.00;;;20.50;99.90;;;;;;4870976;29;20519;-85
2021/06/22 08:10:31;;;;;;;5.45;4.95;;;20.40;99.90;;;;;;4867023;29;20405;-85
2021/06/22 08:12:57;;;;;;;4.73;4.23;;;20.40;99.90;;;;;;4877263;29;20449;-83
2021/06/22 08:15:23;;;;;;;4.47;4.07;;;20.40;99.90;;;;;;4863282;29;20464;-87
2021/06/22 08:17:49;;;;;;;4.82;4.43;;;20.50;99.90;;;;;;4879236;29;20411;-84
2021/06/22 08:20:15;;;;;;;5.03;4.43;;;20.50;99.90;;;;;;4887688;29;20412;-81
2021/06/22 08:22:41;;;;;;;4.55;4.15;;;20.60;99.90;;;;;;4857854;29;20401;-81
2021/06/22 08:25:07;;;;;;;4.22;3.83;;;20.70;99.90;;;;;;4888993;29;20399;-81
2021/06/22 08:27:33;;;;;;;5.00;4.50;;;20.80;99.90;;;;;;4872806;29;20421;-85
2021/06/22 08:29:59;;;;;;;4.53;4.13;;;20.80;99.90;;;;;;4897736;29;20401;-81
2021/06/22 08:32:24;;;;;;;7.93;4.00;;;20.80;99.90;;;;;;4866824;29;20409;-85
2021/06/22 08:34:50;;;;;;;3.77;3.47;;;20.80;99.90;;;;;;4842040;29;21016;-81
2021/06/22 08:37:16;;;;;;;5.30;4.72;;;20.80;99.90;;;;;;4866743;29;20420;-82
2021/06/22 08:39:42;;;;;;;4.72;3.75;;;20.80;99.90;;;;;;4861645;29;20432;-81
2021/06/22 08:42:09;;;;;;;4.85;3.80;;;20.90;99.90;;;;;;4866021;29;20401;-83
2021/06/22 08:44:35;;;;;;;4.90;4.00;;;21.00;99.90;;;;;;4843086;29;20425;-81
2021/06/22 08:47:01;;;;;;;5.70;4.63;;;21.10;99.90;;;;;;4865415;29;20420;-81
2021/06/22 08:49:28;;;;;;;4.38;3.97;;;21.00;99.90;;;;;;4862974;29;20412;-80
2021/06/22 08:51:55;;;;;;;4.68;4.28;;;21.00;99.90;;;;;;4876862;29;20419;-83
2021/06/22 08:54:20;;;;;;;4.35;3.95;;;21.00;99.90;;;;;;4858701;29;20540;-80
2021/06/22 08:56:46;;;;;;;4.50;4.10;;;21.00;99.90;;;;;;4860649;29;20973;-83
2021/06/22 08:59:12;;;;;;;5.25;4.13;;;20.90;99.90;;;;;;4859135;29;20465;-79
2021/06/22 09:01:37;;;;;;;5.00;4.50;;;21.00;99.90;;;;;;4836039;29;20401;-80
2021/06/22 09:04:03;;;;;;;4.45;4.05;;;20.80;99.90;;;;;;4875474;29;20908;-81
2021/06/22 09:06:44;;;;;;;4.27;3.87;;;20.60;99.90;;;;;;4843930;29;20823;-80
2021/06/22 09:09:12;;;;;;;4.38;3.90;;;20.60;99.90;;;;;;4844967;29;20412;-80
2021/06/22 09:11:38;;;;;;;4.10;3.80;;;20.60;99.90;;;;;;4842732;29;20916;-80
2021/06/22 09:14:05;;;;;;;4.73;4.20;;;20.60;99.90;;;;;;4860870;29;20409;-80
2021/06/22 09:16:31;;;;;;;4.28;3.83;;;20.70;99.90;;;;;;4868524;29;20423;-84
2021/06/22 09:19:03;;;;;;;4.27;3.87;;;20.80;99.90;;;;;;4859986;29;20474;-79
2021/06/22 09:21:29;;;;;;;3.72;3.42;;;20.90;99.90;;;;;;4861268;29;20408;-79
2021/06/22 09:23:56;;;;;;;5.25;4.28;;;21.00;99.90;;;;;;4866512;29;20430;-80
2021/06/22 09:26:26;;;;;;;4.20;3.80;;;20.90;99.90;;;;;;4873950;29;20952;-85
2021/06/22 09:28:52;;;;;;;5.25;4.75;;;20.90;99.90;;;;;;4841594;29;20415;-78
2021/06/22 09:31:22;;;;;;;5.75;3.92;;;20.90;99.90;;;;;;4874655;29;20945;-79
2021/06/22 09:33:52;;;;;;;4.88;4.30;;;20.90;99.90;;;;;;4875964;29;20506;-79
2021/06/22 09:36:26;;;;;;;4.63;3.95;;;20.80;99.90;;;;;;4861111;29;20905;-79
2021/06/22 09:39:01;;;;;;;4.35;3.97;;;20.70;99.90;;;;;;4860580;29;20427;-79
2021/06/22 09:41:28;;;;;;;4.53;4.05;;;20.70;99.90;;;;;;4862871;29;21067;-78
2021/06/22 09:44:01;;;;;;;4.43;4.03;;;20.70;99.90;;;;;;4855818;29;21034;-78
2021/06/22 09:46:49;;;;;;;5.28;4.53;;;20.70;99.90;;;;;;4837223;29;20414;-79
2021/06/22 09:49:15;;;;;;;4.95;4.38;;;20.70;99.90;;;;;;4855205;29;20998;-79
2021/06/22 09:51:53;;;;;;;4.63;4.22;;;20.60;99.90;;;;;;4873977;29;20544;-79
2021/06/22 09:54:21;;;;;;;4.38;4.00;;;20.60;99.90;;;;;;4872082;29;20924;-77
2021/06/22 09:56:54;;;;;;;4.18;3.78;;;20.50;99.90;;;;;;4891182;29;20410;-78
2021/06/22 09:59:20;;;;;;;4.55;4.15;;;20.50;99.90;;;;;;4877921;29;20512;-79
2021/06/22 10:01:45;;;;;;;5.10;4.60;;;20.40;99.90;;;;;;4878381;29;20480;-78
2021/06/22 10:04:30;;;;;;;4.63;4.22;;;20.30;99.90;;;;;;4847479;29;20409;-79
2021/06/22 10:06:58;;;;;;;6.60;4.80;;;20.10;99.90;;;;;;4858298;29;20426;-78
2021/06/22 10:09:27;;;;;;;6.05;4.95;;;20.10;99.90;;;;;;4869236;29;20408;-81
2021/06/22 10:12:08;;;;;;;6.43;4.95;;;20.20;99.90;;;;;;4873977;29;20468;-79
2021/06/22 10:14:39;;;;;;;5.32;4.82;;;20.30;99.90;;;;;;4851851;29;20498;-80
2021/06/22 10:17:09;;;;;;;5.63;5.05;;;20.50;99.90;;;;;;4868626;29;20419;-79
2021/06/22 10:19:36;;;;;;;5.45;4.78;;;20.60;99.90;;;;;;4862391;29;20417;-80
2021/06/22 10:22:05;;;;;;;4.38;3.97;;;20.70;99.90;;;;;;4871781;29;20407;-79
2021/06/22 10:24:31;;;;;;;5.55;4.35;;;20.80;99.90;;;;;;4877219;29;20422;-79
2021/06/22 10:26:58;;;;;;;6.73;4.40;;;20.90;99.90;;;;;;4840583;29;20423;-80
2021/06/22 10:29:23;;;;;;;4.32;3.90;;;20.80;99.90;;;;;;4851814;29;20473;-83
2021/06/22 10:31:52;;;;;;;5.10;4.60;;;20.90;99.90;;;;;;4843267;29;20646;-79
2021/06/22 10:34:17;;;;;;;5.53;3.83;;;20.90;99.90;;;;;;4847176;29;20464;-85
2021/06/22 10:36:48;;;;;;;4.05;3.75;;;20.90;99.90;;;;;;4861978;29;20559;-81
2021/06/22 10:39:17;;;;;;;4.75;4.32;;;21.10;99.90;;;;;;4891175;29;20546;-79
2021/06/22 10:41:44;;;;;;;5.03;4.53;;;21.00;99.90;;;;;;4848084;29;20413;-80
2021/06/22 10:44:26;;;;;;;4.78;3.67;;;20.90;99.90;;;;;;4861679;29;20413;-81
2021/06/22 10:47:20;;;;;;;4.70;3.97;;;20.90;99.90;;;;;;4902298;29;20864;-79
2021/06/22 10:50:00;;;;;;;4.18;3.72;;;21.00;99.90;;;;;;4897068;29;20493;-78
2021/06/22 10:55:22;;;;;;;4.10;3.70;;;21.10;99.90;;;;;;4885649;29;20407;-79
2021/06/22 10:57:59;;;;;;;4.20;3.80;;;21.10;99.90;;;;;;4872238;29;20414;-80
2021/06/22 11:00:25;;;;;;;3.80;3.47;;;21.20;99.90;;;;;;4895262;29;20405;-80
2021/06/22 11:03:00;;;;;;;4.13;3.58;;;21.20;99.90;;;;;;4869603;29;20405;-80
2021/06/22 11:05:26;;;;;;;3.72;3.00;;;21.20;99.90;;;;;;4862132;29;20989;-80
2021/06/22 11:08:10;;;;;;;5.55;3.78;;;21.00;99.90;;;;;;4892479;29;21023;-84
2021/06/22 11:10:36;;;;;;;3.28;2.97;;;21.00;99.90;;;;;;4889456;29;20442;-79
2021/06/22 11:13:03;;;;;;;3.97;3.67;;;21.10;99.90;;;;;;4876956;29;20406;-80
2021/06/22 11:15:44;;;;;;;4.18;3.78;;;21.10;99.90;;;;;;4877943;29;20406;-84
2021/06/22 11:18:10;;;;;;;3.75;3.25;;;21.10;99.90;;;;;;4876632;29;20424;-80
2021/06/22 11:20:36;;;;;;;3.58;3.28;;;21.20;99.90;;;;;;4844348;29;20430;-81
2021/06/22 11:23:06;;;;;;;2.90;2.70;;;21.10;99.90;;;;;;4872897;29;20911;-81
2021/06/22 11:26:03;;;;;;;3.08;2.78;;;21.20;99.90;;;;;;4887305;29;21139;-79
2021/06/22 11:28:49;;;;;;;3.72;3.42;;;21.30;99.90;;;;;;4875812;29;20501;-78
2021/06/22 11:31:37;;;;;;;3.33;2.80;;;21.20;99.90;;;;;;4880548;29;20464;-78
2021/06/22 11:34:07;;;;;;;3.33;3.03;;;21.10;99.90;;;;;;4871606;29;20397;-78
2021/06/22 11:36:34;;;;;;;3.05;2.85;;;21.00;99.90;;;;;;4876099;29;20412;-80
2021/06/22 11:39:11;;;;;;;3.70;3.40;;;21.10;99.90;;;;;;4844303;29;20397;-80
2021/06/22 11:41:37;;;;;;;4.30;3.90;;;21.20;99.90;;;;;;4874645;29;20494;-78
2021/06/22 11:44:08;;;;;;;3.72;3.42;;;21.00;99.90;;;;;;4883106;29;20465;-79
2021/06/22 11:46:40;;;;;;;3.50;3.20;;;20.90;99.90;;;;;;4901801;29;20428;-79
2021/06/22 11:49:06;;;;;;;3.87;3.50;;;20.90;99.90;;;;;;4892610;29;21022;-78
2021/06/22 11:51:46;;;;;;;3.90;3.60;;;20.90;99.90;;;;;;4870051;29;20399;-78
2021/06/22 11:54:13;;;;;;;4.38;3.90;;;20.80;99.90;;;;;;4887308;29;21021;-79
2021/06/22 11:56:39;;;;;;;4.75;3.83;;;20.80;99.90;;;;;;4843447;29;20405;-78
2021/06/22 11:59:04;;;;;;;4.80;4.10;;;20.80;99.90;;;;;;4879735;29;20539;-80
2021/06/22 12:01:30;;;;;;;4.33;3.93;;;20.80;99.90;;;;;;4846748;29;20463;-77
2021/06/22 12:03:56;;;;;;;4.28;3.88;;;20.70;99.90;;;;;;4852460;29;20963;-78
2021/06/22 12:06:22;;;;;;;4.77;4.00;;;20.80;99.90;;;;;;4872503;29;20463;-81
2021/06/22 12:08:48;;;;;;;3.90;3.50;;;20.70;99.90;;;;;;4869230;29;20474;-78
2021/06/22 12:11:30;;;;;;;4.57;4.17;;;20.80;99.90;;;;;;4874776;29;20409;-80
2021/06/22 12:13:56;;;;;;;3.70;3.40;;;20.80;99.90;;;;;;4855705;29;20446;-78
2021/06/22 12:16:23;;;;;;;3.72;3.42;;;20.90;99.90;;;;;;4850003;29;20417;-79
2021/06/22 12:18:52;;;;;;;3.75;3.38;;;20.60;99.90;;;;;;4870196;29;21159;-78
2021/06/22 12:21:18;;;;;;;4.72;3.70;;;20.60;99.90;;;;;;4869059;29;20405;-78
2021/06/22 12:23:44;;;;;;;3.92;3.22;;;20.50;99.90;;;;;;4839328;29;20947;-79
2021/06/22 12:26:10;;;;;;;3.33;3.03;;;20.50;99.90;;;;;;4881981;29;20434;-80
2021/06/22 12:28:36;;;;;;;3.85;3.47;;;20.50;99.90;;;;;;4842728;29;20421;-79
2021/06/22 12:31:02;;;;;;;3.20;2.90;;;20.50;99.90;;;;;;4887332;29;20418;-81
2021/06/22 12:33:29;;;;;;;3.10;2.83;;;20.60;99.90;;;;;;4883632;29;20408;-79
2021/06/22 12:36:00;;;;;;;3.67;2.90;;;20.60;99.90;;;;;;4840796;29;20431;-82
2021/06/22 12:38:25;;;;;;;3.72;3.42;;;20.50;99.90;;;;;;4851673;29;20450;-78
2021/06/22 12:40:59;;;;;;;3.73;2.60;;;20.70;99.90;;;;;;4873003;29;20426;-78
2021/06/22 12:43:47;;;;;;;6.07;3.42;;;20.70;99.90;;;;;;4875534;29;20446;-79
2021/06/22 12:46:17;;;;;;;3.97;3.47;;;20.80;99.90;;;;;;4873566;29;20958;-78
2021/06/22 12:48:43;;;;;;;4.10;3.47;;;20.70;99.90;;;;;;4856771;29;20408;-82
2021/06/22 12:51:09;;;;;;;3.27;2.97;;;20.70;99.90;;;;;;4876552;29;20405;-79
2021/06/22 12:53:35;;;;;;;3.47;3.17;;;20.70;99.90;;;;;;4876895;29;20403;-78
2021/06/22 12:56:08;;;;;;;3.40;3.10;;;20.70;99.90;;;;;;4871463;29;20959;-85